createdAt,value
2018-08-31T00:00:34.260Z,0
2018-08-31T00:01:34.532Z,0
2018-08-31T00:02:34.009Z,0
2018-08-31T00:03:34.255Z,0
2018-08-31T00:04:34.527Z,0
2018-08-31T00:05:34.785Z,0
2018-08-31T00:06:34.524Z,0
2018-08-31T00:07:34.513Z,0
2018-08-31T00:08:34.526Z,0
2018-08-31T00:09:34.553Z,0
2018-08-31T00:10:34.824Z,0
2018-08-31T00:11:34.020Z,0
2018-08-31T00:12:34.773Z,0
2018-08-31T00:13:34.523Z,0
2018-08-31T00:14:34.510Z,0
2018-08-31T00:15:34.772Z,0
2018-08-31T00:16:34.513Z,0
2018-08-31T00:17:34.770Z,0
2018-08-31T00:18:34.511Z,0
2018-08-31T00:19:34.518Z,0
2018-08-31T00:20:34.544Z,0
2018-08-31T00:21:34.262Z,0
2018-08-31T00:22:34.529Z,0
2018-08-31T00:23:34.279Z,0
2018-08-31T00:24:34.277Z,0
2018-08-31T00:25:34.813Z,0
2018-08-31T00:26:34.781Z,0
2018-08-31T00:27:34.526Z,0
2018-08-31T00:28:34.771Z,0
2018-08-31T00:29:34.517Z,0
2018-08-31T00:30:34.531Z,0
2018-08-31T00:31:34.783Z,0
2018-08-31T00:32:34.553Z,0
2018-08-31T00:33:34.542Z,0
2018-08-31T00:34:34.291Z,0
2018-08-31T00:35:34.789Z,0
2018-08-31T00:36:34.531Z,0
2018-08-31T00:37:34.792Z,0
2018-08-31T00:38:34.540Z,0
2018-08-31T00:39:34.535Z,0
2018-08-31T00:40:34.636Z,0
2018-08-31T00:41:34.543Z,0
2018-08-31T00:42:34.799Z,0
2018-08-31T00:43:34.531Z,0
2018-08-31T00:44:34.789Z,0
2018-08-31T00:45:34.793Z,0
2018-08-31T00:46:34.531Z,0
2018-08-31T00:47:34.532Z,0
2018-08-31T00:48:34.533Z,0
2018-08-31T00:49:34.558Z,0
2018-08-31T00:50:34.566Z,0
2018-08-31T00:51:34.289Z,0
2018-08-31T00:52:34.530Z,0
2018-08-31T00:53:34.784Z,0
2018-08-31T00:54:34.542Z,0
2018-08-31T00:55:34.796Z,0
2018-08-31T00:56:34.574Z,0
2018-08-31T00:57:34.538Z,0
2018-08-31T00:58:34.558Z,0
2018-08-31T00:59:34.548Z,0
2018-08-31T01:00:34.058Z,0
2018-08-31T01:01:34.894Z,0
2018-08-31T01:02:34.536Z,0
2018-08-31T01:03:34.568Z,0
2018-08-31T01:04:34.564Z,0
2018-08-31T01:05:34.798Z,0
2018-08-31T01:06:34.574Z,0
2018-08-31T01:07:34.538Z,0
2018-08-31T01:08:34.320Z,0
2018-08-31T01:09:34.555Z,0
2018-08-31T01:10:34.331Z,0
2018-08-31T01:11:34.317Z,0
2018-08-31T01:12:34.882Z,0
2018-08-31T01:13:34.788Z,0
2018-08-31T01:14:34.790Z,0
2018-08-31T01:15:34.817Z,0
2018-08-31T01:16:34.568Z,0
2018-08-31T01:17:34.563Z,0
2018-08-31T01:18:34.322Z,0
2018-08-31T01:19:34.813Z,0
2018-08-31T01:20:34.284Z,0
2018-08-31T01:21:34.634Z,0
2018-08-31T01:22:34.627Z,0
2018-08-31T01:23:34.813Z,0
2018-08-31T01:24:34.049Z,0
2018-08-31T01:25:34.824Z,0
2018-08-31T01:26:34.798Z,0
2018-08-31T01:27:34.542Z,0
2018-08-31T01:28:34.307Z,0
2018-08-31T01:29:34.815Z,0
2018-08-31T01:30:34.561Z,0
2018-08-31T01:31:34.550Z,0
2018-08-31T01:32:34.804Z,0
2018-08-31T01:33:34.297Z,0
2018-08-31T01:34:34.564Z,0
2018-08-31T01:35:34.844Z,0
2018-08-31T01:36:34.558Z,0
2018-08-31T01:37:34.298Z,0
2018-08-31T01:38:34.792Z,0
2018-08-31T01:39:34.322Z,0
2018-08-31T01:40:34.545Z,0
2018-08-31T01:41:34.573Z,0
2018-08-31T01:42:34.592Z,0
2018-08-31T01:43:34.553Z,0
2018-08-31T01:44:34.545Z,0
2018-08-31T01:45:34.641Z,0
2018-08-31T01:46:34.797Z,0
2018-08-31T01:47:34.792Z,0
2018-08-31T01:48:34.317Z,0
2018-08-31T01:49:34.049Z,0
2018-08-31T01:50:34.042Z,0
2018-08-31T01:51:34.284Z,0
2018-08-31T01:52:34.610Z,0
2018-08-31T01:53:34.383Z,0
2018-08-31T01:54:34.310Z,0
2018-08-31T01:55:34.550Z,0
2018-08-31T01:56:34.851Z,0
2018-08-31T01:57:34.300Z,0
2018-08-31T01:58:34.036Z,0
2018-08-31T01:59:34.332Z,0
2018-08-31T02:00:34.285Z,0
2018-08-31T02:01:34.813Z,0
2018-08-31T02:02:34.055Z,0
2018-08-31T02:03:34.824Z,0
2018-08-31T02:04:34.317Z,0
2018-08-31T02:05:34.553Z,0
2018-08-31T02:06:34.572Z,0
2018-08-31T02:07:34.538Z,0
2018-08-31T02:08:34.816Z,0
2018-08-31T02:09:34.556Z,0
2018-08-31T02:10:34.554Z,0
2018-08-31T02:11:34.544Z,0
2018-08-31T02:12:34.797Z,0
2018-08-31T02:13:34.035Z,0
2018-08-31T02:14:34.543Z,0
2018-08-31T02:15:34.556Z,0
2018-08-31T02:16:34.545Z,0
2018-08-31T02:17:34.039Z,0
2018-08-31T02:18:34.288Z,0
2018-08-31T02:19:34.540Z,0
2018-08-31T02:20:34.287Z,0
2018-08-31T02:21:34.809Z,0
2018-08-31T02:22:34.810Z,0
2018-08-31T02:23:34.553Z,0
2018-08-31T02:24:34.549Z,0
2018-08-31T02:25:34.808Z,0
2018-08-31T02:26:34.575Z,0
2018-08-31T02:27:34.366Z,0
2018-08-31T02:28:34.818Z,0
2018-08-31T02:29:34.545Z,0
2018-08-31T02:30:34.284Z,0
2018-08-31T02:31:34.562Z,0
2018-08-31T02:32:35.399Z,0
2018-08-31T02:33:34.284Z,0
2018-08-31T02:34:34.570Z,0
2018-08-31T02:35:34.057Z,0
2018-08-31T02:36:34.545Z,0
2018-08-31T02:37:35.109Z,0
2018-08-31T02:38:34.288Z,0
2018-08-31T02:39:34.563Z,0
2018-08-31T02:40:34.312Z,0
2018-08-31T02:41:34.289Z,0
2018-08-31T02:42:34.549Z,0
2018-08-31T02:43:34.560Z,0
2018-08-31T02:44:34.816Z,0
2018-08-31T02:45:34.561Z,0
2018-08-31T02:46:34.558Z,0
2018-08-31T02:47:34.801Z,0
2018-08-31T02:48:34.823Z,0
2018-08-31T02:49:34.543Z,0
2018-08-31T02:50:34.642Z,0
2018-08-31T02:51:34.543Z,0
2018-08-31T02:52:34.806Z,0
2018-08-31T02:53:34.805Z,0
2018-08-31T02:54:34.821Z,0
2018-08-31T02:55:34.567Z,0
2018-08-31T02:56:34.585Z,0
2018-08-31T02:57:34.290Z,0
2018-08-31T02:58:34.549Z,0
2018-08-31T02:59:34.377Z,0
2018-08-31T03:00:34.298Z,0
2018-08-31T03:01:34.307Z,0
2018-08-31T03:02:34.547Z,0
2018-08-31T03:03:34.302Z,0
2018-08-31T03:04:34.664Z,0
2018-08-31T03:05:34.834Z,0
2018-08-31T03:06:34.556Z,0
2018-08-31T03:07:34.302Z,0
2018-08-31T03:08:34.684Z,0
2018-08-31T03:09:34.803Z,0
2018-08-31T03:10:34.551Z,0
2018-08-31T03:11:34.737Z,0
2018-08-31T03:12:34.623Z,0
2018-08-31T03:13:34.807Z,0
2018-08-31T03:14:34.552Z,0
2018-08-31T03:15:34.292Z,0
2018-08-31T03:16:34.804Z,0
2018-08-31T03:17:34.035Z,0
2018-08-31T03:18:34.552Z,0
2018-08-31T03:19:34.043Z,0
2018-08-31T03:20:34.339Z,0
2018-08-31T03:21:34.726Z,0
2018-08-31T03:22:34.837Z,0
2018-08-31T03:23:34.048Z,0
2018-08-31T03:24:34.556Z,0
2018-08-31T03:25:34.628Z,0
2018-08-31T03:26:34.824Z,0
2018-08-31T03:27:34.290Z,0
2018-08-31T03:28:34.296Z,0
2018-08-31T03:29:34.547Z,0
2018-08-31T03:30:34.557Z,0
2018-08-31T03:31:34.814Z,0
2018-08-31T03:32:34.810Z,0
2018-08-31T03:33:34.567Z,0
2018-08-31T03:34:34.564Z,0
2018-08-31T03:35:34.565Z,0
2018-08-31T03:36:34.583Z,0
2018-08-31T03:37:34.811Z,0
2018-08-31T03:38:34.552Z,0
2018-08-31T03:39:34.317Z,0
2018-08-31T03:40:34.289Z,0
2018-08-31T03:41:34.816Z,0
2018-08-31T03:42:34.796Z,0
2018-08-31T03:43:34.296Z,0
2018-08-31T03:44:34.532Z,0
2018-08-31T03:45:34.550Z,0
2018-08-31T03:46:34.317Z,0
2018-08-31T03:47:34.281Z,0
2018-08-31T03:48:34.584Z,0
2018-08-31T03:49:34.572Z,0
2018-08-31T03:50:34.797Z,0
2018-08-31T03:51:34.293Z,0
2018-08-31T03:52:34.558Z,0
2018-08-31T03:53:34.555Z,0
2018-08-31T03:54:34.297Z,0
2018-08-31T03:55:34.545Z,0
2018-08-31T03:56:34.543Z,0
2018-08-31T03:57:34.306Z,0
2018-08-31T03:58:34.825Z,0
2018-08-31T03:59:34.536Z,0
2018-08-31T04:00:34.326Z,0
2018-08-31T04:01:34.283Z,0
2018-08-31T04:02:34.524Z,0
2018-08-31T04:03:34.528Z,0
2018-08-31T04:04:34.533Z,0
2018-08-31T04:05:34.530Z,0
2018-08-31T04:06:34.286Z,0
2018-08-31T04:07:34.275Z,0
2018-08-31T04:08:34.521Z,0
2018-08-31T04:09:34.526Z,0
2018-08-31T04:10:34.524Z,0
2018-08-31T04:11:34.548Z,4
2018-08-31T04:12:34.543Z,4
2018-08-31T04:13:34.276Z,4
2018-08-31T04:14:34.525Z,0
2018-08-31T04:15:34.840Z,4
2018-08-31T04:16:34.579Z,4
2018-08-31T04:17:34.808Z,4
2018-08-31T04:18:34.633Z,8
2018-08-31T04:19:34.020Z,4
2018-08-31T04:20:34.526Z,4
2018-08-31T04:21:34.542Z,8
2018-08-31T04:22:34.796Z,4
2018-08-31T04:23:35.343Z,8
2018-08-31T04:24:34.518Z,8
2018-08-31T04:25:34.344Z,12
2018-08-31T04:26:34.534Z,12
2018-08-31T04:27:34.535Z,12
2018-08-31T04:28:34.821Z,16
2018-08-31T04:29:34.790Z,16
2018-08-31T04:30:34.532Z,20
2018-08-31T04:31:34.007Z,20
2018-08-31T04:32:34.265Z,24
2018-08-31T04:33:34.265Z,28
2018-08-31T04:34:34.525Z,28
2018-08-31T04:35:34.780Z,32
2018-08-31T04:36:34.317Z,40
2018-08-31T04:37:34.261Z,40
2018-08-31T04:38:34.253Z,40
2018-08-31T04:39:34.532Z,44
2018-08-31T04:40:34.607Z,40
2018-08-31T04:41:34.532Z,40
2018-08-31T04:42:34.785Z,40
2018-08-31T04:43:34.789Z,44
2018-08-31T04:44:34.797Z,44
2018-08-31T04:45:34.533Z,48
2018-08-31T04:46:34.520Z,48
2018-08-31T04:47:34.531Z,52
2018-08-31T04:48:34.032Z,52
2018-08-31T04:49:34.522Z,56
2018-08-31T04:50:35.312Z,56
2018-08-31T04:51:34.540Z,56
2018-08-31T04:52:34.537Z,56
2018-08-31T04:53:35.096Z,56
2018-08-31T04:54:34.528Z,60
2018-08-31T04:55:34.796Z,64
2018-08-31T04:56:34.522Z,72
2018-08-31T04:57:34.792Z,72
2018-08-31T04:58:34.536Z,76
2018-08-31T04:59:34.529Z,80
2018-08-31T05:00:34.539Z,80
2018-08-31T05:01:34.529Z,80
2018-08-31T05:02:34.267Z,84
2018-08-31T05:03:35.310Z,84
2018-08-31T05:04:34.794Z,84
2018-08-31T05:05:34.789Z,84
2018-08-31T05:06:34.518Z,88
2018-08-31T05:07:34.509Z,88
2018-08-31T05:08:34.531Z,88
2018-08-31T05:09:34.794Z,88
2018-08-31T05:10:34.279Z,88
2018-08-31T05:11:34.270Z,96
2018-08-31T05:12:34.526Z,92
2018-08-31T05:13:34.286Z,100
2018-08-31T05:14:34.519Z,100
2018-08-31T05:15:34.288Z,100
2018-08-31T05:16:34.779Z,108
2018-08-31T05:17:34.772Z,112
2018-08-31T05:18:34.810Z,124
2018-08-31T05:19:34.533Z,140
2018-08-31T05:20:34.768Z,156
2018-08-31T05:21:34.528Z,168
2018-08-31T05:22:34.666Z,180
2018-08-31T05:23:34.270Z,196
2018-08-31T05:24:34.779Z,212
2018-08-31T05:25:34.536Z,216
2018-08-31T05:26:34.517Z,224
2018-08-31T05:27:34.534Z,224
2018-08-31T05:28:35.291Z,224
2018-08-31T05:29:34.260Z,224
2018-08-31T05:30:34.570Z,224
2018-08-31T05:31:34.793Z,228
2018-08-31T05:32:34.543Z,228
2018-08-31T05:33:34.009Z,232
2018-08-31T05:34:34.782Z,236
2018-08-31T05:35:34.542Z,244
2018-08-31T05:36:34.278Z,252
2018-08-31T05:37:34.777Z,268
2018-08-31T05:38:34.774Z,272
2018-08-31T05:39:34.277Z,280
2018-08-31T05:40:34.530Z,288
2018-08-31T05:41:34.523Z,292
2018-08-31T05:42:34.565Z,292
2018-08-31T05:43:34.792Z,296
2018-08-31T05:44:34.534Z,296
2018-08-31T05:45:34.523Z,300
2018-08-31T05:46:34.524Z,304
2018-08-31T05:47:34.533Z,312
2018-08-31T05:48:34.514Z,316
2018-08-31T05:49:34.777Z,324
2018-08-31T05:50:34.548Z,336
2018-08-31T05:51:33.998Z,352
2018-08-31T05:52:34.522Z,372
2018-08-31T05:53:34.917Z,396
2018-08-31T05:54:34.768Z,420
2018-08-31T05:55:34.512Z,460
2018-08-31T05:56:34.521Z,496
2018-08-31T05:57:34.764Z,548
2018-08-31T05:58:34.508Z,604
2018-08-31T05:59:35.586Z,652
2018-08-31T06:00:34.782Z,696
2018-08-31T06:01:34.844Z,736
2018-08-31T06:02:34.780Z,776
2018-08-31T06:03:34.263Z,824
2018-08-31T06:04:34.011Z,860
2018-08-31T06:05:34.518Z,912
2018-08-31T06:06:34.256Z,972
2018-08-31T06:07:34.508Z,1012
2018-08-31T06:08:34.780Z,1020
2018-08-31T06:09:34.525Z,1000
2018-08-31T06:10:34.768Z,952
2018-08-31T06:11:33.997Z,896
2018-08-31T06:12:34.517Z,848
2018-08-31T06:13:34.259Z,828
2018-08-31T06:14:34.791Z,812
2018-08-31T06:15:34.299Z,804
2018-08-31T06:16:34.509Z,796
2018-08-31T06:17:34.251Z,784
2018-08-31T06:18:34.776Z,776
2018-08-31T06:19:34.053Z,768
2018-08-31T06:20:34.545Z,764
2018-08-31T06:21:34.532Z,760
2018-08-31T06:22:34.265Z,760
2018-08-31T06:23:34.255Z,764
2018-08-31T06:24:34.781Z,768
2018-08-31T06:25:34.845Z,772
2018-08-31T06:26:34.512Z,776
2018-08-31T06:27:34.770Z,780
2018-08-31T06:28:34.775Z,780
2018-08-31T06:29:34.261Z,776
2018-08-31T06:30:34.789Z,780
2018-08-31T06:31:34.778Z,784
2018-08-31T06:32:34.662Z,788
2018-08-31T06:33:34.506Z,792
2018-08-31T06:34:34.510Z,796
2018-08-31T06:35:34.268Z,800
2018-08-31T06:36:34.534Z,800
2018-08-31T06:37:34.253Z,800
2018-08-31T06:38:34.775Z,804
2018-08-31T06:39:34.258Z,812
2018-08-31T06:40:34.776Z,812
2018-08-31T06:41:34.761Z,816
2018-08-31T06:42:34.520Z,812
2018-08-31T06:43:34.508Z,808
2018-08-31T06:44:34.242Z,792
2018-08-31T06:45:34.493Z,776
2018-08-31T06:46:34.785Z,764
2018-08-31T06:47:34.771Z,752
2018-08-31T06:48:34.801Z,744
2018-08-31T06:49:34.804Z,732
2018-08-31T06:50:34.759Z,724
2018-08-31T06:51:35.277Z,716
2018-08-31T06:52:34.758Z,704
2018-08-31T06:53:34.490Z,700
2018-08-31T06:54:34.252Z,712
2018-08-31T06:55:34.768Z,724
2018-08-31T06:56:34.253Z,748
2018-08-31T06:57:34.249Z,772
2018-08-31T06:58:34.509Z,804
2018-08-31T06:59:34.493Z,848
2018-08-31T07:00:34.511Z,888
2018-08-31T07:01:34.490Z,940
2018-08-31T07:02:34.506Z,984
2018-08-31T07:03:34.763Z,1036
2018-08-31T07:04:34.827Z,1088
2018-08-31T07:05:33.991Z,1148
2018-08-31T07:06:33.987Z,1208
2018-08-31T07:07:34.761Z,1268
2018-08-31T07:08:34.511Z,1320
2018-08-31T07:09:34.766Z,1360
2018-08-31T07:10:34.752Z,1376
2018-08-31T07:11:34.501Z,1392
2018-08-31T07:12:34.874Z,1424
2018-08-31T07:13:34.500Z,1472
2018-08-31T07:14:34.751Z,1528
2018-08-31T07:15:34.792Z,1576
2018-08-31T07:16:34.516Z,1628
2018-08-31T07:17:34.768Z,1692
2018-08-31T07:18:34.808Z,1768
2018-08-31T07:19:34.263Z,1848
2018-08-31T07:20:34.284Z,1940
2018-08-31T07:21:34.274Z,2024
2018-08-31T07:22:34.760Z,2096
2018-08-31T07:23:34.504Z,2132
2018-08-31T07:24:34.489Z,2128
2018-08-31T07:25:34.604Z,2108
2018-08-31T07:26:35.284Z,2092
2018-08-31T07:27:34.794Z,2096
2018-08-31T07:28:34.499Z,2124
2018-08-31T07:29:34.754Z,2172
2018-08-31T07:30:33.994Z,2216
2018-08-31T07:31:34.522Z,2252
2018-08-31T07:32:34.953Z,2240
2018-08-31T07:33:34.766Z,2188
2018-08-31T07:34:34.261Z,2088
2018-08-31T07:35:34.566Z,1956
2018-08-31T07:36:34.420Z,1828
2018-08-31T07:37:34.262Z,1700
2018-08-31T07:38:34.753Z,1592
2018-08-31T07:39:34.512Z,1508
2018-08-31T07:40:34.497Z,1440
2018-08-31T07:41:34.236Z,1396
2018-08-31T07:42:34.229Z,1376
2018-08-31T07:43:34.496Z,1372
2018-08-31T07:44:34.779Z,1372
2018-08-31T07:45:34.756Z,1384
2018-08-31T07:46:34.754Z,1392
2018-08-31T07:47:34.478Z,1404
2018-08-31T07:48:34.506Z,1424
2018-08-31T07:49:34.505Z,1440
2018-08-31T07:50:34.299Z,1452
2018-08-31T07:51:34.746Z,1464
2018-08-31T07:52:34.236Z,1480
2018-08-31T07:53:34.754Z,1496
2018-08-31T07:54:34.743Z,1516
2018-08-31T07:55:34.750Z,1532
2018-08-31T07:56:34.746Z,1540
2018-08-31T07:57:34.497Z,1544
2018-08-31T07:58:34.502Z,1540
2018-08-31T07:59:33.987Z,1544
2018-08-31T08:00:34.525Z,1548
2018-08-31T08:01:34.243Z,1572
2018-08-31T08:02:34.757Z,1616
2018-08-31T08:03:34.233Z,1648
2018-08-31T08:04:34.494Z,1660
2018-08-31T08:05:35.040Z,1676
2018-08-31T08:06:34.742Z,1684
2018-08-31T08:07:35.166Z,1724
2018-08-31T08:08:34.242Z,1760
2018-08-31T08:09:34.492Z,1796
2018-08-31T08:10:34.567Z,1828
2018-08-31T08:11:34.241Z,1860
2018-08-31T08:12:34.511Z,1896
2018-08-31T08:13:34.263Z,1908
2018-08-31T08:14:34.813Z,1892
2018-08-31T08:15:33.964Z,1880
2018-08-31T08:16:34.774Z,1880
2018-08-31T08:17:33.978Z,1896
2018-08-31T08:18:34.693Z,1924
2018-08-31T08:19:34.241Z,1960
2018-08-31T08:20:34.495Z,1992
2018-08-31T08:21:34.238Z,2012
2018-08-31T08:22:34.513Z,2064
2018-08-31T08:23:34.484Z,2120
2018-08-31T08:24:34.730Z,2152
2018-08-31T08:25:34.526Z,2168
2018-08-31T08:26:34.470Z,2152
2018-08-31T08:27:34.499Z,2108
2018-08-31T08:28:34.778Z,2060
2018-08-31T08:29:34.473Z,2016
2018-08-31T08:30:34.263Z,1980
2018-08-31T08:31:34.488Z,1944
2018-08-31T08:32:34.503Z,1912
2018-08-31T08:33:34.481Z,1892
2018-08-31T08:34:34.226Z,1872
2018-08-31T08:35:34.757Z,1852
2018-08-31T08:36:34.475Z,1836
2018-08-31T08:37:34.509Z,1816
2018-08-31T08:38:34.480Z,1800
2018-08-31T08:39:34.718Z,1780
2018-08-31T08:40:34.490Z,1760
2018-08-31T08:41:33.949Z,1752
2018-08-31T08:42:34.768Z,1756
2018-08-31T08:43:34.715Z,1760
2018-08-31T08:44:34.206Z,1764
2018-08-31T08:45:34.466Z,1768
2018-08-31T08:46:34.472Z,1760
2018-08-31T08:47:34.469Z,1744
2018-08-31T08:48:35.295Z,1740
2018-08-31T08:49:33.964Z,1736
2018-08-31T08:50:34.460Z,1736
2018-08-31T08:51:34.459Z,1740
2018-08-31T08:52:34.470Z,1764
2018-08-31T08:53:34.708Z,1788
2018-08-31T08:54:34.474Z,1808
2018-08-31T08:55:34.712Z,1832
2018-08-31T08:56:34.449Z,1864
2018-08-31T08:57:34.474Z,1908
2018-08-31T08:58:34.712Z,1948
2018-08-31T08:59:34.462Z,1984
2018-08-31T09:00:34.461Z,2016
2018-08-31T09:01:34.449Z,2040
2018-08-31T09:02:34.495Z,2056
2018-08-31T09:03:34.710Z,2072
2018-08-31T09:04:34.715Z,2088
2018-08-31T09:05:35.051Z,2104
2018-08-31T09:06:34.459Z,2128
2018-08-31T09:07:34.211Z,2156
2018-08-31T09:08:33.934Z,2188
2018-08-31T09:09:34.701Z,2224
2018-08-31T09:10:34.782Z,2264
2018-08-31T09:11:34.464Z,2288
2018-08-31T09:12:35.067Z,2308
2018-08-31T09:13:34.741Z,2304
2018-08-31T09:14:34.464Z,2324
2018-08-31T09:15:34.572Z,2368
2018-08-31T09:16:34.705Z,2444
2018-08-31T09:17:34.456Z,2528
2018-08-31T09:18:35.054Z,2616
2018-08-31T09:19:33.910Z,2700
2018-08-31T09:20:34.264Z,2784
2018-08-31T09:21:34.698Z,2860
2018-08-31T09:22:34.465Z,2936
2018-08-31T09:23:34.184Z,2996
2018-08-31T09:24:34.851Z,3044
2018-08-31T09:25:34.777Z,3104
2018-08-31T09:26:34.719Z,3148
2018-08-31T09:27:34.469Z,3224
2018-08-31T09:28:34.690Z,3320
2018-08-31T09:29:33.933Z,3420
2018-08-31T09:30:34.455Z,3536
2018-08-31T09:31:34.183Z,3660
2018-08-31T09:32:35.027Z,3772
2018-08-31T09:33:34.290Z,3820
2018-08-31T09:34:34.190Z,3836
2018-08-31T09:35:34.702Z,3832
2018-08-31T09:36:34.432Z,3892
2018-08-31T09:37:34.465Z,3992
2018-08-31T09:38:34.698Z,4056
2018-08-31T09:39:33.977Z,4080
2018-08-31T09:40:34.436Z,4104
2018-08-31T09:41:34.454Z,4188
2018-08-31T09:42:34.736Z,4284
2018-08-31T09:43:33.937Z,4356
2018-08-31T09:44:34.462Z,4380
2018-08-31T09:45:34.457Z,4412
2018-08-31T09:46:34.448Z,4448
2018-08-31T09:47:34.463Z,4468
2018-08-31T09:48:33.937Z,4488
2018-08-31T09:49:34.831Z,4508
2018-08-31T09:50:34.703Z,4528
2018-08-31T09:51:33.914Z,4548
2018-08-31T09:52:34.676Z,4580
2018-08-31T09:53:34.191Z,4604
2018-08-31T09:54:34.680Z,4620
2018-08-31T09:55:34.177Z,4612
2018-08-31T09:56:34.698Z,4624
2018-08-31T09:57:34.406Z,4612
2018-08-31T09:58:34.446Z,4556
2018-08-31T09:59:34.716Z,4432
2018-08-31T10:00:34.438Z,4268
2018-08-31T10:01:34.442Z,4144
2018-08-31T10:02:34.182Z,4076
2018-08-31T10:03:34.428Z,4016
2018-08-31T10:04:34.431Z,3960
2018-08-31T10:05:34.460Z,3904
2018-08-31T10:06:34.690Z,3840
2018-08-31T10:07:34.434Z,3772
2018-08-31T10:08:34.432Z,3728
2018-08-31T10:09:34.175Z,3704
2018-08-31T10:10:34.782Z,3688
2018-08-31T10:11:34.702Z,3680
2018-08-31T10:12:34.684Z,3688
2018-08-31T10:13:34.985Z,3652
2018-08-31T10:14:34.688Z,3608
2018-08-31T10:15:34.212Z,3556
2018-08-31T10:16:34.455Z,3500
2018-08-31T10:17:34.687Z,3468
2018-08-31T10:18:34.507Z,3452
2018-08-31T10:19:34.680Z,3460
2018-08-31T10:20:34.505Z,3500
2018-08-31T10:21:34.696Z,3556
2018-08-31T10:22:34.423Z,3608
2018-08-31T10:23:34.189Z,3648
2018-08-31T10:24:34.427Z,3664
2018-08-31T10:25:34.432Z,3680
2018-08-31T10:26:34.449Z,3700
2018-08-31T10:27:34.435Z,3744
2018-08-31T10:28:34.441Z,3816
2018-08-31T10:29:34.163Z,3896
2018-08-31T10:30:34.242Z,3920
2018-08-31T10:31:34.448Z,3892
2018-08-31T10:32:34.423Z,3868
2018-08-31T10:33:34.168Z,3900
2018-08-31T10:34:34.418Z,3904
2018-08-31T10:35:34.169Z,3876
2018-08-31T10:36:34.674Z,3848
2018-08-31T10:37:34.163Z,3820
2018-08-31T10:38:34.427Z,3844
2018-08-31T10:39:34.481Z,3920
2018-08-31T10:40:34.679Z,4032
2018-08-31T10:41:34.155Z,4176
2018-08-31T10:42:34.435Z,4288
2018-08-31T10:43:34.419Z,4368
2018-08-31T10:44:34.415Z,4392
2018-08-31T10:45:34.048Z,4384
2018-08-31T10:46:34.755Z,4328
2018-08-31T10:47:34.177Z,4260
2018-08-31T10:48:34.459Z,4176
2018-08-31T10:49:34.169Z,4144
2018-08-31T10:50:34.458Z,4204
2018-08-31T10:51:34.414Z,4232
2018-08-31T10:52:34.679Z,4268
2018-08-31T10:53:34.662Z,4280
2018-08-31T10:54:34.652Z,4220
2018-08-31T10:55:34.721Z,4124
2018-08-31T10:56:34.680Z,3972
2018-08-31T10:57:34.430Z,3836
2018-08-31T10:58:33.912Z,3772
2018-08-31T10:59:34.176Z,3724
2018-08-31T11:00:34.523Z,3604
2018-08-31T11:01:34.671Z,3452
2018-08-31T11:02:34.436Z,3348
2018-08-31T11:03:34.575Z,3320
2018-08-31T11:04:34.673Z,3356
2018-08-31T11:05:34.202Z,3424
2018-08-31T11:06:34.420Z,3468
2018-08-31T11:07:34.162Z,3492
2018-08-31T11:08:34.216Z,3568
2018-08-31T11:09:34.694Z,3652
2018-08-31T11:10:34.209Z,3704
2018-08-31T11:11:34.189Z,3732
2018-08-31T11:12:34.603Z,3784
2018-08-31T11:13:34.668Z,3876
2018-08-31T11:14:34.672Z,3912
2018-08-31T11:15:34.206Z,3980
2018-08-31T11:16:34.673Z,4148
2018-08-31T11:17:34.160Z,4328
2018-08-31T11:18:34.673Z,4464
2018-08-31T11:19:33.921Z,4572
2018-08-31T11:20:34.476Z,4632
2018-08-31T11:21:34.164Z,4664
2018-08-31T11:22:34.162Z,4704
2018-08-31T11:23:34.677Z,4716
2018-08-31T11:24:34.435Z,4728
2018-08-31T11:25:34.422Z,4776
2018-08-31T11:26:34.432Z,4888
2018-08-31T11:27:33.932Z,4956
2018-08-31T11:28:34.416Z,5000
2018-08-31T11:29:34.701Z,5048
2018-08-31T11:30:34.479Z,5064
2018-08-31T11:31:34.691Z,5040
2018-08-31T11:32:34.415Z,5016
2018-08-31T11:33:34.408Z,4928
2018-08-31T11:34:34.439Z,4884
2018-08-31T11:35:34.758Z,4896
2018-08-31T11:36:34.432Z,4944
2018-08-31T11:37:34.453Z,4920
2018-08-31T11:38:34.187Z,4868
2018-08-31T11:39:34.854Z,4812
2018-08-31T11:40:34.521Z,4776
2018-08-31T11:41:34.664Z,4888
2018-08-31T11:42:34.176Z,4848
2018-08-31T11:43:34.955Z,4764
2018-08-31T11:44:34.172Z,4708
2018-08-31T11:45:34.780Z,4660
2018-08-31T11:46:34.426Z,4612
2018-08-31T11:47:34.671Z,4596
2018-08-31T11:48:34.674Z,4488
2018-08-31T11:49:34.439Z,4380
2018-08-31T11:50:34.708Z,4392
2018-08-31T11:51:34.427Z,4356
2018-08-31T11:52:34.426Z,4372
2018-08-31T11:53:34.716Z,4420
2018-08-31T11:54:34.727Z,4496
2018-08-31T11:55:34.731Z,4692
2018-08-31T11:56:34.170Z,4736
2018-08-31T11:57:34.226Z,4812
2018-08-31T11:58:34.440Z,4860
2018-08-31T11:59:34.165Z,4776
2018-08-31T12:00:34.545Z,4660
2018-08-31T12:01:34.866Z,4624
2018-08-31T12:02:34.443Z,4516
2018-08-31T12:03:34.206Z,4396
2018-08-31T12:04:34.684Z,4392
2018-08-31T12:05:34.717Z,4568
2018-08-31T12:06:34.196Z,4756
2018-08-31T12:07:34.730Z,4856
2018-08-31T12:08:34.467Z,4904
2018-08-31T12:09:34.466Z,4940
2018-08-31T12:10:34.557Z,4952
2018-08-31T12:11:34.435Z,4980
2018-08-31T12:12:34.702Z,5024
2018-08-31T12:13:34.435Z,4988
2018-08-31T12:14:34.226Z,4904
2018-08-31T12:15:34.695Z,4840
2018-08-31T12:16:34.177Z,4788
2018-08-31T12:17:34.704Z,4776
2018-08-31T12:18:34.426Z,4728
2018-08-31T12:19:34.699Z,4788
2018-08-31T12:20:34.429Z,4876
2018-08-31T12:21:33.945Z,4920
2018-08-31T12:22:34.703Z,4908
2018-08-31T12:23:34.719Z,4900
2018-08-31T12:24:34.188Z,4864
2018-08-31T12:25:34.532Z,4828
2018-08-31T12:26:34.436Z,4780
2018-08-31T12:27:34.705Z,4740
2018-08-31T12:28:34.202Z,4712
2018-08-31T12:29:34.458Z,4660
2018-08-31T12:30:34.564Z,4596
2018-08-31T12:31:34.445Z,4548
2018-08-31T12:32:34.198Z,4528
2018-08-31T12:33:34.453Z,4488
2018-08-31T12:34:34.197Z,4464
2018-08-31T12:35:34.782Z,4484
2018-08-31T12:36:34.701Z,4464
2018-08-31T12:37:33.955Z,4476
2018-08-31T12:38:34.448Z,4556
2018-08-31T12:39:34.707Z,4624
2018-08-31T12:40:34.731Z,4656
2018-08-31T12:41:34.450Z,4676
2018-08-31T12:42:34.017Z,4628
2018-08-31T12:43:34.454Z,4584
2018-08-31T12:44:34.710Z,4532
2018-08-31T12:45:34.543Z,4512
2018-08-31T12:46:34.192Z,4492
2018-08-31T12:47:34.717Z,4464
2018-08-31T12:48:34.716Z,4424
2018-08-31T12:49:34.468Z,4328
2018-08-31T12:50:34.206Z,4256
2018-08-31T12:51:34.206Z,4316
2018-08-31T12:52:34.474Z,4436
2018-08-31T12:53:34.456Z,4520
2018-08-31T12:54:34.736Z,4640
2018-08-31T12:55:34.761Z,4644
2018-08-31T12:56:34.469Z,4576
2018-08-31T12:57:34.716Z,4500
2018-08-31T12:58:34.742Z,4344
2018-08-31T12:59:34.458Z,4248
2018-08-31T13:00:34.529Z,4144
2018-08-31T13:01:34.211Z,4100
2018-08-31T13:02:34.492Z,4108
2018-08-31T13:03:34.200Z,4152
2018-08-31T13:04:34.205Z,4208
2018-08-31T13:05:34.719Z,4252
2018-08-31T13:06:34.200Z,4268
2018-08-31T13:07:34.736Z,4260
2018-08-31T13:08:34.479Z,4240
2018-08-31T13:09:34.208Z,4168
2018-08-31T13:10:34.489Z,4052
2018-08-31T13:11:34.214Z,3944
2018-08-31T13:12:34.214Z,3888
2018-08-31T13:13:34.207Z,3876
2018-08-31T13:14:34.243Z,3904
2018-08-31T13:15:34.231Z,3944
2018-08-31T13:16:34.484Z,4024
2018-08-31T13:17:33.985Z,4112
2018-08-31T13:18:34.208Z,4164
2018-08-31T13:19:34.472Z,4172
2018-08-31T13:20:34.546Z,4192
2018-08-31T13:21:34.469Z,4200
2018-08-31T13:22:34.205Z,4168
2018-08-31T13:23:34.720Z,4208
2018-08-31T13:24:34.452Z,4332
2018-08-31T13:25:34.751Z,4380
2018-08-31T13:26:34.721Z,4420
2018-08-31T13:27:34.718Z,4472
2018-08-31T13:28:34.710Z,4504
2018-08-31T13:29:34.215Z,4524
2018-08-31T13:30:34.219Z,4476
2018-08-31T13:31:34.486Z,4416
2018-08-31T13:32:34.493Z,4344
2018-08-31T13:33:34.492Z,4220
2018-08-31T13:34:37.712Z,4148
2018-08-31T13:35:34.546Z,4112
2018-08-31T13:36:34.722Z,4032
2018-08-31T13:37:34.778Z,3952
2018-08-31T13:38:34.747Z,3888
2018-08-31T13:39:34.449Z,3832
2018-08-31T13:40:34.736Z,3788
2018-08-31T13:41:34.709Z,3760
2018-08-31T13:42:34.462Z,3764
2018-08-31T13:43:34.201Z,3772
2018-08-31T13:44:34.724Z,3808
2018-08-31T13:45:34.518Z,3868
2018-08-31T13:46:34.472Z,3940
2018-08-31T13:47:34.734Z,4068
2018-08-31T13:48:34.722Z,4224
2018-08-31T13:49:34.469Z,4384
2018-08-31T13:50:34.277Z,4576
2018-08-31T13:51:34.461Z,4816